Airfield :
LOGIN :

Register | Disclaimer

   EN    FR    IT 

 










Legend :    VFR   Marginal VFR   IFR   Intensive IFR   Very Intensive IFR
Visi :
Ceiling :
>= 8 km
>= 3000ft
5 to 8 km
1000 to 3000 ft
1500m to 5 km
500 to 1000 ft
800 to 1500m
200 to 500 ft
< 800m
< 200 ft
Symbols :   Thunderstorms  Fog  Heavy snow  Heavy precipitations  Wind > 20 kt
SIGMETs :     Misc.  Thunderstorms  Icing  Turbulence  Mountain Waves  Volcanic Ashes






- Airport Elevation : 87 ft
- IATA code : AHO


LIEA - Fertilia Alghero

EXPIRED METARs :
  • 011620Z 01008KT 330V040 CAVOK 31/15 Q1015
  • 012150Z AUTO VRB02KT 9999 NCD 21/18 Q1017
  • 012120Z AUTO 06002KT 9999 NCD 22/19 Q1017
  • 012050Z 01004KT CAVOK 22/19 Q1017
  • 012020Z 01004KT CAVOK 23/18 Q1016
  • 010550Z 03004KT 010V070 CAVOK 24/22 Q1013
  • 011950Z 02004KT CAVOK 23/19 Q1016

TAF TAF LIEA
Valid from the 01 at 18:00 until the 02 at 18:00 UTC


011700Z 0118/0218 03007KT 9999 FEW050
TEMPO 0123/0205 2000 BCFG
BECMG 0210/0212 32010KT



MET'MAP, your aeronautical weather chart ! - Copyright ORBIFLY December 2007 - Disclaimer

ORBIFLY MET'MAP TEAM :

Programming & Development : Alexandra Zaïnal
Original concept : Baudouin d'Aumeries
Technical & hardware support : Manuel Goepfert
Assistance : Marc-Olivier Méhu




SOURCES & CREDITS :

   NOAA